createdAt,value
2023-04-22T00:00:58.886Z,22.48
2023-04-22T00:03:28.982Z,23.63
2023-04-22T00:05:57.784Z,22.58
2023-04-22T00:08:26.027Z,25.55
2023-04-22T00:10:54.270Z,22.42
2023-04-22T00:13:22.468Z,21.75
2023-04-22T00:15:51.306Z,25.55
2023-04-22T00:18:21.237Z,21.42
2023-04-22T00:20:49.412Z,23.30
2023-04-22T00:23:17.659Z,21.13
2023-04-22T00:25:45.956Z,22.55
2023-04-22T00:28:14.225Z,23.63
2023-04-22T00:30:42.768Z,23.88
2023-04-22T00:33:11.098Z,20.13
2023-04-22T00:35:40.792Z,22.33
2023-04-22T00:38:09.583Z,25.33
2023-04-22T00:40:37.869Z,24.42
2023-04-22T00:43:06.877Z,25.52
2023-04-22T00:45:37.802Z,30.58
2023-04-22T00:48:06.634Z,33.50
2023-04-22T00:50:35.064Z,33.60
2023-04-22T00:53:05.364Z,30.67
2023-04-22T00:55:34.153Z,31.05
2023-04-22T00:58:04.017Z,29.33
2023-04-22T01:00:32.589Z,28.77
2023-04-22T01:03:01.066Z,26.73
2023-04-22T01:05:31.974Z,26.52
2023-04-22T01:08:00.957Z,29.38
2023-04-22T01:10:30.663Z,28.60
2023-04-22T01:12:58.904Z,26.27
2023-04-22T01:15:28.710Z,29.55
2023-04-22T01:17:57.858Z,30.77
2023-04-22T01:20:29.656Z,32.20
2023-04-22T01:22:59.492Z,35.33
2023-04-22T01:25:29.208Z,32.53
2023-04-22T01:27:58.156Z,37.40
2023-04-22T01:30:26.452Z,48.63
2023-04-22T01:32:55.041Z,43.55
2023-04-22T01:35:23.506Z,36.55
2023-04-22T01:37:52.319Z,36.00
2023-04-22T01:40:22.776Z,36.95
2023-04-22T01:42:52.859Z,39.80
2023-04-22T01:45:21.085Z,38.70
2023-04-22T01:47:49.298Z,30.15
2023-04-22T01:50:17.663Z,21.38
2023-04-22T01:52:47.205Z,22.70
2023-04-22T01:55:16.522Z,28.00
2023-04-22T01:57:45.575Z,23.30
2023-04-22T02:00:16.112Z,20.00
2023-04-22T02:02:48.649Z,22.25
2023-04-22T02:05:17.063Z,19.65
2023-04-22T02:07:47.613Z,24.60
2023-04-22T02:10:18.218Z,26.98
2023-04-22T02:12:48.868Z,28.17
2023-04-22T02:15:18.875Z,26.77
2023-04-22T02:17:47.006Z,31.60
2023-04-22T02:20:15.271Z,28.58
2023-04-22T02:22:45.283Z,30.33
2023-04-22T02:25:14.502Z,25.05
2023-04-22T02:27:44.377Z,30.65
2023-04-22T02:30:13.840Z,30.45
2023-04-22T02:32:43.565Z,31.05
2023-04-22T02:35:12.483Z,26.65
2023-04-22T02:37:40.854Z,28.30
2023-04-22T02:40:09.926Z,23.83
2023-04-22T02:42:38.235Z,24.67
2023-04-22T02:45:07.645Z,23.25
2023-04-22T02:47:37.045Z,27.90
2023-04-22T02:50:09.152Z,30.85
2023-04-22T02:52:37.733Z,26.23
2023-04-22T02:55:06.751Z,31.08
2023-04-22T02:57:35.077Z,26.80
2023-04-22T03:00:03.843Z,27.10
2023-04-22T03:02:35.556Z,33.42
2023-04-22T03:05:12.525Z,27.23
2023-04-22T03:07:41.065Z,27.52
2023-04-22T03:10:10.376Z,23.58
2023-04-22T03:12:38.725Z,24.33
2023-04-22T03:15:08.129Z,27.05
2023-04-22T03:17:37.295Z,25.45
2023-04-22T03:20:11.757Z,22.00
2023-04-22T03:22:41.616Z,25.00
2023-04-22T03:25:12.350Z,25.60
2023-04-22T03:27:41.073Z,26.27
2023-04-22T03:30:10.499Z,24.88
2023-04-22T03:32:38.926Z,19.98
2023-04-22T03:35:30.437Z,23.27
2023-04-22T03:38:03.396Z,19.27
2023-04-22T03:40:35.421Z,25.35
2023-04-22T03:43:10.264Z,22.17
2023-04-22T03:45:39.368Z,26.30
2023-04-22T03:48:21.821Z,22.52
2023-04-22T03:50:52.847Z,24.00
2023-04-22T03:53:22.693Z,20.55
2023-04-22T03:55:51.006Z,21.15
2023-04-22T03:58:20.684Z,23.83
2023-04-22T04:00:50.346Z,21.23
2023-04-22T04:03:20.793Z,22.15
2023-04-22T04:05:52.594Z,17.95
2023-04-22T04:08:23.961Z,20.08
2023-04-22T04:10:52.268Z,19.75
2023-04-22T04:13:20.667Z,22.63
2023-04-22T04:16:10.298Z,17.00
2023-04-22T04:18:41.004Z,20.17
2023-04-22T04:21:09.941Z,18.58
2023-04-22T04:23:44.526Z,21.52
2023-04-22T04:26:15.152Z,19.38
2023-04-22T04:28:47.270Z,20.35
2023-04-22T04:31:17.649Z,19.25
2023-04-22T04:33:46.670Z,16.63
2023-04-22T04:36:15.389Z,20.55
2023-04-22T04:38:47.135Z,21.02
2023-04-22T04:41:15.612Z,23.77
2023-04-22T04:43:46.460Z,24.75
2023-04-22T04:46:30.512Z,20.30
2023-04-22T04:48:59.801Z,16.92
2023-04-22T04:51:32.581Z,17.73
2023-04-22T04:54:03.761Z,21.05
2023-04-22T04:56:37.299Z,16.42
2023-04-22T04:59:06.921Z,17.42
2023-04-22T05:01:36.377Z,17.17
2023-04-22T05:04:09.364Z,22.30
2023-04-22T05:06:41.113Z,18.67
2023-04-22T05:09:11.230Z,18.55
2023-04-22T05:11:39.476Z,16.38
2023-04-22T05:14:14.163Z,15.82
2023-04-22T05:16:44.278Z,11.77
2023-04-22T05:19:12.521Z,15.88
2023-04-22T05:21:40.896Z,5.72
2023-04-22T05:24:10.682Z,4.68
2023-04-22T05:26:40.410Z,5.13
2023-04-22T05:29:15.310Z,3.75
2023-04-22T05:31:44.011Z,10.73
2023-04-22T05:34:12.850Z,6.50
2023-04-22T05:36:41.387Z,9.23
2023-04-22T05:39:11.104Z,13.32
2023-04-22T05:41:39.818Z,7.13
2023-04-22T05:44:11.267Z,14.50
2023-04-22T05:46:39.980Z,8.88
2023-04-22T05:49:08.752Z,13.88
2023-04-22T05:51:56.078Z,7.07
2023-04-22T05:54:31.347Z,4.07
2023-04-22T05:57:00.055Z,5.15
2023-04-22T05:59:28.328Z,8.60
2023-04-22T06:01:57.079Z,7.40
2023-04-22T06:04:26.749Z,9.90
2023-04-22T06:06:55.480Z,7.57
2023-04-22T06:09:23.911Z,6.50
2023-04-22T06:11:53.514Z,6.13
2023-04-22T06:14:21.698Z,11.82
2023-04-22T06:16:52.769Z,12.77
2023-04-22T06:19:21.532Z,9.60
2023-04-22T06:21:49.748Z,9.90
2023-04-22T06:24:18.322Z,15.20
2023-04-22T06:26:46.581Z,7.07
2023-04-22T06:29:16.541Z,8.70
2023-04-22T06:31:44.982Z,7.68
2023-04-22T06:34:13.533Z,11.13
2023-04-22T06:36:42.222Z,6.68
2023-04-22T06:39:11.166Z,9.27
2023-04-22T06:41:50.529Z,8.70
2023-04-22T06:44:43.412Z,7.70
2023-04-22T06:47:46.818Z,8.60
2023-04-22T06:50:17.768Z,9.23
2023-04-22T06:52:51.075Z,8.45
2023-04-22T06:55:19.618Z,7.68
2023-04-22T06:57:48.708Z,11.27
2023-04-22T07:00:19.054Z,8.93
2023-04-22T07:02:48.724Z,6.75
2023-04-22T07:05:17.594Z,8.38
2023-04-22T07:07:47.147Z,12.70
2023-04-22T07:10:20.283Z,8.57
2023-04-22T07:13:08.528Z,4.18
2023-04-22T07:15:38.244Z,7.68
2023-04-22T07:18:06.714Z,7.32
2023-04-22T07:20:34.973Z,8.93
2023-04-22T07:23:03.226Z,8.45
2023-04-22T07:25:31.445Z,10.45
2023-04-22T07:27:59.769Z,8.73
2023-04-22T07:30:28.120Z,18.33
2023-04-22T07:32:57.757Z,19.38
2023-04-22T07:35:26.076Z,19.45
2023-04-22T07:37:54.473Z,18.50
2023-04-22T07:40:22.801Z,11.80
2023-04-22T07:42:51.634Z,19.45
2023-04-22T07:45:20.553Z,17.15
2023-04-22T07:47:48.925Z,14.18
2023-04-22T07:50:18.606Z,21.10
2023-04-22T07:52:46.894Z,14.25
2023-04-22T07:55:15.136Z,15.43
2023-04-22T07:57:43.596Z,17.50
2023-04-22T08:00:13.011Z,11.27
2023-04-22T08:02:41.605Z,15.38
2023-04-22T08:05:10.149Z,15.93
2023-04-22T08:07:40.191Z,15.80
2023-04-22T08:10:09.419Z,11.55
2023-04-22T08:12:38.187Z,14.60
2023-04-22T08:15:07.706Z,17.20
2023-04-22T08:17:36.482Z,15.20
2023-04-22T08:20:07.957Z,15.50
2023-04-22T08:22:36.755Z,11.77
2023-04-22T08:25:08.584Z,8.70
2023-04-22T08:27:37.012Z,13.77
2023-04-22T08:30:06.232Z,23.48
2023-04-22T08:32:34.949Z,16.23
2023-04-22T08:35:05.467Z,14.43
2023-04-22T08:37:35.518Z,12.50
2023-04-22T08:40:04.859Z,9.45
2023-04-22T08:42:35.815Z,12.52
2023-04-22T08:45:05.098Z,13.27
2023-04-22T08:47:36.217Z,32.05
2023-04-22T08:50:06.620Z,57.30
2023-04-22T08:52:34.885Z,17.70
2023-04-22T08:55:03.151Z,9.60
2023-04-22T08:57:37.077Z,20.92
2023-04-22T09:00:07.152Z,16.15
2023-04-22T09:02:38.742Z,17.38
2023-04-22T09:05:10.402Z,20.08
2023-04-22T09:07:40.998Z,10.52
2023-04-22T09:10:11.871Z,14.30
2023-04-22T09:12:42.416Z,20.77
2023-04-22T09:15:11.730Z,10.88
2023-04-22T09:17:41.395Z,11.57
2023-04-22T09:20:12.395Z,8.82
2023-04-22T09:22:43.133Z,6.47
2023-04-22T09:25:18.469Z,6.07
2023-04-22T09:27:51.881Z,18.67
2023-04-22T09:30:24.072Z,14.80
2023-04-22T09:32:56.417Z,10.50
2023-04-22T09:35:28.386Z,10.05
2023-04-22T09:37:56.996Z,13.13
2023-04-22T09:40:26.016Z,16.45
2023-04-22T09:42:58.440Z,16.30
2023-04-22T09:45:29.099Z,16.73
2023-04-22T09:47:58.682Z,13.23
2023-04-22T09:50:28.093Z,13.82
2023-04-22T09:52:58.614Z,18.77
2023-04-22T09:55:28.074Z,26.27
2023-04-22T09:57:59.029Z,25.65
2023-04-22T10:00:31.607Z,23.08
2023-04-22T10:03:00.802Z,25.20
2023-04-22T10:05:30.111Z,21.25
2023-04-22T10:07:58.611Z,29.90
2023-04-22T10:10:27.468Z,13.63
2023-04-22T10:12:57.823Z,47.00
2023-04-22T10:15:27.180Z,79.30
2023-04-22T10:17:56.896Z,95.25
2023-04-22T10:20:27.287Z,126.75
2023-04-22T10:22:57.391Z,39.80
2023-04-22T10:25:27.650Z,22.92
2023-04-22T10:28:04.647Z,34.90
2023-04-22T10:30:34.367Z,33.33
2023-04-22T10:33:36.555Z,13.13
2023-04-22T10:36:16.779Z,42.95
2023-04-22T10:39:19.087Z,29.30
2023-04-22T10:41:53.207Z,26.63
2023-04-22T10:44:23.831Z,13.30
2023-04-22T10:47:00.858Z,13.20
2023-04-22T10:49:32.057Z,18.67
2023-04-22T10:52:01.678Z,21.85
2023-04-22T10:54:58.878Z,39.10
2023-04-22T10:57:36.332Z,30.42
2023-04-22T11:00:52.384Z,36.67
2023-04-22T11:03:29.085Z,20.58
2023-04-22T11:06:17.861Z,11.05
2023-04-22T11:08:47.812Z,17.13
2023-04-22T11:11:19.031Z,21.77
2023-04-22T11:13:50.679Z,25.48
2023-04-22T11:16:23.412Z,25.50
2023-04-22T11:18:53.891Z,25.08
2023-04-22T11:21:22.456Z,8.60
2023-04-22T11:23:54.331Z,15.80
2023-04-22T11:26:35.178Z,15.40
2023-04-22T11:29:04.172Z,9.95
2023-04-22T11:31:32.391Z,9.13
2023-04-22T11:34:02.142Z,14.60
2023-04-22T11:36:31.603Z,16.30
2023-04-22T11:38:59.932Z,20.80
2023-04-22T11:41:30.093Z,13.75
2023-04-22T11:43:58.458Z,28.33
2023-04-22T11:46:31.449Z,10.02
2023-04-22T11:49:14.980Z,11.38
2023-04-22T11:51:56.442Z,19.38
2023-04-22T11:54:33.101Z,19.63
2023-04-22T11:57:03.594Z,15.85
2023-04-22T11:59:31.798Z,27.65
2023-04-22T12:02:00.140Z,14.25
2023-04-22T12:04:29.878Z,15.30
2023-04-22T12:06:58.382Z,19.42
2023-04-22T12:09:26.874Z,7.30
2023-04-22T12:11:55.118Z,19.92
2023-04-22T12:14:30.891Z,14.02
2023-04-22T12:16:59.156Z,16.65
2023-04-22T12:19:29.304Z,12.15
2023-04-22T12:21:57.822Z,10.38
2023-04-22T12:24:29.540Z,10.82
2023-04-22T12:26:58.688Z,18.05
2023-04-22T12:29:32.682Z,23.13
2023-04-22T12:32:01.036Z,22.15
2023-04-22T12:34:30.702Z,26.23
2023-04-22T12:37:00.040Z,21.95
2023-04-22T12:39:28.235Z,19.08
2023-04-22T12:41:57.803Z,16.60
2023-04-22T12:44:26.385Z,20.25
2023-04-22T12:46:54.825Z,20.55
2023-04-22T12:49:22.955Z,11.25
2023-04-22T12:51:52.829Z,17.70
2023-04-22T12:54:21.315Z,26.05
2023-04-22T12:56:49.888Z,22.17
2023-04-22T12:59:18.141Z,14.73
2023-04-22T13:01:46.408Z,26.48
2023-04-22T13:04:14.894Z,32.35
2023-04-22T13:06:44.339Z,18.45
2023-04-22T13:09:14.154Z,31.45
2023-04-22T13:11:42.403Z,17.70
2023-04-22T13:14:10.962Z,32.67
2023-04-22T13:16:39.274Z,22.05
2023-04-22T13:19:07.733Z,29.73
2023-04-22T13:21:35.956Z,29.73
2023-04-22T13:24:04.453Z,31.50
2023-04-22T13:26:34.261Z,33.40
2023-04-22T13:29:03.013Z,42.42
2023-04-22T13:31:31.518Z,94.50
2023-04-22T13:34:00.051Z,54.97
2023-04-22T13:36:28.419Z,32.75
2023-04-22T13:38:56.941Z,12.10
2023-04-22T13:41:25.327Z,16.25
2023-04-22T13:43:56.124Z,23.58
2023-04-22T13:46:25.215Z,58.90
2023-04-22T13:48:54.469Z,33.75
2023-04-22T13:51:22.931Z,59.47
2023-04-22T13:53:51.559Z,28.58
2023-04-22T13:56:22.565Z,31.40
2023-04-22T13:58:51.485Z,16.27
2023-04-22T14:01:23.111Z,26.40
2023-04-22T14:03:58.993Z,12.32
2023-04-22T14:06:28.460Z,8.52
2023-04-22T14:08:56.889Z,26.33
2023-04-22T14:11:25.461Z,12.27
2023-04-22T14:13:53.975Z,9.18
2023-04-22T14:16:26.445Z,11.35
2023-04-22T14:18:55.982Z,12.15
2023-04-22T14:21:27.153Z,13.18
2023-04-22T14:23:56.218Z,10.32
2023-04-22T14:26:24.873Z,27.48
2023-04-22T14:28:53.786Z,31.20
2023-04-22T14:31:24.701Z,29.00
2023-04-22T14:33:53.265Z,12.02
2023-04-22T14:36:21.691Z,10.98
2023-04-22T14:38:50.137Z,24.55
2023-04-22T14:41:18.592Z,12.65
2023-04-22T14:43:47.232Z,40.60
2023-04-22T14:46:15.793Z,36.90
2023-04-22T14:48:45.469Z,13.77
2023-04-22T14:51:13.797Z,11.52
2023-04-22T14:53:43.952Z,16.20
2023-04-22T14:56:13.116Z,9.93
2023-04-22T14:58:41.448Z,28.50
2023-04-22T15:01:10.032Z,10.07
2023-04-22T15:03:39.001Z,18.23
2023-04-22T15:06:09.186Z,19.63
2023-04-22T15:08:37.853Z,30.30
2023-04-22T15:11:06.928Z,13.57
2023-04-22T15:13:36.105Z,12.57
2023-04-22T15:16:05.034Z,5.28
2023-04-22T15:18:33.737Z,9.50
2023-04-22T15:21:03.419Z,7.03
2023-04-22T15:23:33.655Z,8.55
2023-04-22T15:26:02.352Z,14.23
2023-04-22T15:28:31.082Z,6.95
2023-04-22T15:30:59.734Z,17.75
2023-04-22T15:33:28.368Z,20.83
2023-04-22T15:35:56.709Z,6.47
2023-04-22T15:38:25.901Z,17.35
2023-04-22T15:40:55.814Z,6.78
2023-04-22T15:43:24.325Z,13.80
2023-04-22T15:45:53.335Z,11.32
2023-04-22T15:48:21.868Z,15.23
2023-04-22T15:50:50.380Z,11.63
2023-04-22T15:53:18.850Z,12.48
2023-04-22T15:55:48.647Z,11.93
2023-04-22T15:58:19.510Z,11.50
2023-04-22T16:00:52.045Z,5.90
2023-04-22T16:03:21.825Z,10.15
2023-04-22T16:05:52.027Z,8.73
2023-04-22T16:08:23.014Z,13.82
2023-04-22T16:10:55.247Z,19.77
2023-04-22T16:13:27.150Z,13.70
2023-04-22T16:15:57.673Z,5.78
2023-04-22T16:18:26.975Z,23.45
2023-04-22T16:20:55.215Z,10.23
2023-04-22T16:23:23.585Z,6.60
2023-04-22T16:25:51.913Z,12.65
2023-04-22T16:28:20.126Z,18.35
2023-04-22T16:30:49.951Z,11.30
2023-04-22T16:33:18.254Z,15.70
2023-04-22T16:35:46.506Z,6.75
2023-04-22T16:38:15.074Z,9.80
2023-04-22T16:40:43.372Z,21.60
2023-04-22T16:43:13.003Z,11.50
2023-04-22T16:45:41.770Z,7.05
2023-04-22T16:48:11.844Z,18.92
2023-04-22T16:50:40.732Z,23.35
2023-04-22T16:53:10.002Z,36.22
2023-04-22T16:55:38.411Z,22.17
2023-04-22T16:58:07.090Z,17.27
2023-04-22T17:00:35.400Z,15.48
2023-04-22T17:03:03.865Z,24.92
2023-04-22T17:05:34.169Z,30.80
2023-04-22T17:08:02.454Z,29.92
2023-04-22T17:10:31.082Z,26.67
2023-04-22T17:12:59.509Z,20.77
2023-04-22T17:15:27.742Z,32.63
2023-04-22T17:17:56.077Z,23.15
2023-04-22T17:20:24.352Z,49.65
2023-04-22T17:22:54.010Z,43.80
2023-04-22T17:25:22.212Z,37.83
2023-04-22T17:27:50.455Z,26.58
2023-04-22T17:30:18.667Z,32.28
2023-04-22T17:32:46.984Z,24.98
2023-04-22T17:35:15.251Z,49.20
2023-04-22T17:37:43.527Z,77.78
2023-04-22T17:40:13.440Z,109.60
2023-04-22T17:42:46.184Z,108.93
2023-04-22T17:45:15.194Z,94.68
2023-04-22T17:47:43.534Z,83.07
2023-04-22T17:50:12.455Z,90.57
2023-04-22T17:52:40.769Z,38.20
2023-04-22T17:55:10.633Z,140.65
2023-04-22T17:57:40.854Z,67.03
2023-04-22T18:00:11.194Z,129.98
2023-04-22T18:02:41.037Z,109.70
2023-04-22T18:05:10.357Z,175.45
2023-04-22T18:07:38.606Z,108.93
2023-04-22T18:10:08.059Z,109.78
2023-04-22T18:12:36.864Z,161.25
2023-04-22T18:15:07.996Z,139.95
2023-04-22T18:17:36.638Z,92.00
2023-04-22T18:20:16.851Z,98.70
2023-04-22T18:22:47.554Z,126.57
2023-04-22T18:25:16.020Z,212.68
2023-04-22T18:27:44.481Z,311.77
2023-04-22T18:30:14.560Z,363.45
2023-04-22T18:32:43.052Z,277.58
2023-04-22T18:35:11.516Z,125.63
2023-04-22T18:37:41.323Z,129.25
2023-04-22T18:40:10.484Z,145.63
2023-04-22T18:42:39.129Z,116.15
2023-04-22T18:45:08.844Z,127.45
2023-04-22T18:47:38.800Z,135.02
2023-04-22T18:50:08.093Z,137.82
2023-04-22T18:52:36.523Z,153.85
2023-04-22T18:55:05.535Z,321.33
2023-04-22T18:57:35.803Z,187.43
2023-04-22T19:00:06.155Z,213.65
2023-04-22T19:02:38.409Z,177.18
2023-04-22T19:05:10.739Z,151.70
2023-04-22T19:07:38.979Z,184.38
2023-04-22T19:10:08.576Z,169.27
2023-04-22T19:12:37.429Z,100.75
2023-04-22T19:15:07.187Z,85.85
2023-04-22T19:17:35.699Z,72.53
2023-04-22T19:20:05.219Z,103.75
2023-04-22T19:22:35.000Z,194.30
2023-04-22T19:25:03.533Z,126.10
2023-04-22T19:27:32.385Z,131.65
2023-04-22T19:30:01.122Z,122.90
2023-04-22T19:32:29.627Z,126.75
2023-04-22T19:34:58.010Z,147.25
2023-04-22T19:37:27.063Z,267.60
2023-04-22T19:39:57.609Z,192.13
2023-04-22T19:42:25.918Z,124.05
2023-04-22T19:44:54.833Z,126.20
2023-04-22T19:47:24.055Z,101.00
2023-04-22T19:49:53.898Z,108.57
2023-04-22T19:52:23.561Z,96.90
2023-04-22T19:54:55.711Z,88.18
2023-04-22T19:57:26.001Z,159.07
2023-04-22T19:59:55.348Z,55.60
2023-04-22T20:02:24.335Z,47.97
2023-04-22T20:04:52.945Z,59.92
2023-04-22T20:07:21.565Z,65.28
2023-04-22T20:09:52.341Z,58.13
2023-04-22T20:12:21.162Z,58.30
2023-04-22T20:14:50.842Z,64.97
2023-04-22T20:17:19.563Z,85.65
2023-04-22T20:19:50.301Z,71.68
2023-04-22T20:22:18.841Z,76.30
2023-04-22T20:24:48.520Z,69.38
2023-04-22T20:27:17.424Z,64.88
2023-04-22T20:29:46.417Z,52.83
2023-04-22T20:32:16.791Z,53.65
2023-04-22T20:34:45.436Z,56.38
2023-04-22T20:37:14.019Z,49.90
2023-04-22T20:39:44.497Z,48.67
2023-04-22T20:42:14.672Z,84.28
2023-04-22T20:44:43.002Z,83.30
2023-04-22T20:47:12.047Z,63.95
2023-04-22T20:49:42.950Z,78.80
2023-04-22T20:52:12.115Z,76.93
2023-04-22T20:54:41.108Z,63.03
2023-04-22T20:57:10.126Z,63.03
2023-04-22T20:59:38.387Z,72.50
2023-04-22T21:02:07.863Z,71.97
2023-04-22T21:04:36.377Z,65.88
2023-04-22T21:07:07.397Z,66.82
2023-04-22T21:09:36.188Z,54.97
2023-04-22T21:12:05.281Z,67.25
2023-04-22T21:14:34.002Z,67.97
2023-04-22T21:17:05.863Z,52.20
2023-04-22T21:19:35.257Z,61.03
2023-04-22T21:22:06.639Z,57.55
2023-04-22T21:24:39.259Z,58.40
2023-04-22T21:27:08.400Z,44.30
2023-04-22T21:29:38.134Z,45.53
2023-04-22T21:32:09.709Z,45.58
2023-04-22T21:34:38.621Z,40.80
2023-04-22T21:37:08.898Z,49.45
2023-04-22T21:39:37.372Z,41.40
2023-04-22T21:42:08.404Z,36.92
2023-04-22T21:44:38.482Z,37.95
2023-04-22T21:47:07.028Z,36.17
2023-04-22T21:49:35.798Z,40.83
2023-04-22T21:52:04.083Z,38.90
2023-04-22T21:54:33.748Z,30.95
2023-04-22T21:57:02.220Z,33.20
2023-04-22T21:59:31.510Z,34.33
2023-04-22T22:01:59.831Z,53.38
2023-04-22T22:04:28.502Z,48.90
2023-04-22T22:06:57.013Z,61.80
2023-04-22T22:09:26.547Z,62.83
2023-04-22T22:11:56.153Z,109.07
2023-04-22T22:14:24.444Z,98.50
2023-04-22T22:16:53.897Z,104.63
2023-04-22T22:19:22.446Z,120.97
2023-04-22T22:21:50.733Z,158.02
2023-04-22T22:24:19.123Z,120.32
2023-04-22T22:26:47.294Z,104.93
2023-04-22T22:29:17.218Z,110.18
2023-04-22T22:31:47.098Z,81.28
2023-04-22T22:34:15.423Z,52.03
2023-04-22T22:36:43.752Z,42.30
2023-04-22T22:39:14.434Z,35.53
2023-04-22T22:41:44.037Z,42.85
2023-04-22T22:44:12.490Z,40.45
2023-04-22T22:46:42.162Z,46.65
2023-04-22T22:49:10.822Z,40.30
2023-04-22T22:51:39.088Z,33.03
2023-04-22T22:54:07.651Z,30.35
2023-04-22T22:56:35.933Z,22.65
2023-04-22T22:59:04.349Z,29.10
2023-04-22T23:01:32.945Z,25.05
2023-04-22T23:04:02.942Z,23.55
2023-04-22T23:06:31.914Z,14.45
2023-04-22T23:09:00.186Z,11.95
2023-04-22T23:11:28.507Z,16.67
2023-04-22T23:13:56.735Z,9.50
2023-04-22T23:16:25.093Z,9.25
2023-04-22T23:18:53.788Z,8.48
2023-04-22T23:21:24.672Z,7.68
2023-04-22T23:23:53.877Z,9.27
2023-04-22T23:26:22.536Z,6.13
2023-04-22T23:28:51.287Z,8.55
2023-04-22T23:31:20.514Z,7.75
2023-04-22T23:33:51.842Z,7.38
2023-04-22T23:36:22.784Z,10.75
2023-04-22T23:38:52.424Z,6.72
2023-04-22T23:41:20.845Z,5.88
2023-04-22T23:43:49.252Z,9.48
2023-04-22T23:46:18.765Z,7.53
2023-04-22T23:48:47.654Z,9.48
2023-04-22T23:51:16.911Z,11.45
2023-04-22T23:53:46.670Z,13.85
2023-04-22T23:56:20.251Z,16.13
2023-04-22T23:58:49.197Z,17.13
